Aeroporto :
LOGIN :

Iscrizione | Disclaimer

   EN    FR    IT 

 










Sommario :    VFR   VFR Marginale   IFR   IFR Intensivo   IFR Molto Intensivo
Visibilità : 
Base nubi : 
>= 8 km
>= 3000ft
5 / 8 km
1000 / 3000 ft
1500m / 5 km
500 / 1000 ft
800 / 1500m
200 / 500 ft
< 800m
< 200 ft
Simboli :   Temporali  Nebbia  Neve Forte  Precipitazioni Forti  Vento > 20 kt
SIGMETs :   Varie  Temporali  Ghiacco  Turbolenza  Onda orograficha  Ceneri Vulcaniche






- Altitudine del aeroporto : 160 ft
- Codice IATA : FMO


EDDG - Münster Osnabrück Int.

ULTIMO METAR :
  • 250350Z VRB02KT 9999 FEW030 14/13 Q1017 NOSIG

METARs OBSOLETI :
  • 250320Z VRB01KT 9999 FEW030 15/13 Q1018 NOSIG
  • 250250Z VRB01KT 9999 FEW028 15/13 Q1018 NOSIG
  • 250220Z VRB02KT 9999 SCT028 16/13 Q1018 NOSIG
  • 250150Z 26004KT 9999 FEW025 16/13 Q1018 NOSIG
  • 250120Z 25003KT 220V280 CAVOK 16/14 Q1018 NOSIG

TAF TAF EDDG
Valido dal 25 a 00 ore il 26 a 00 ore UTC


242300Z 2500/2524 VRB02KT 9999 FEW030
PROB30
TEMPO 2503/2505 3500 BCFG
BECMG 2507/2509 24006KT
BECMG 2517/2519 VRB02KT



MetMap, La meteo Aeronautica in un colpo d'occhio ! - Copyright ORBIFLY Dicembre 2007 - Disclaimer

ORBIFLY MET'MAP TEAM :

Programmazione e sviluppo : Alexandra Zaïnal
Concezione : Baudouin d'Aumeries
Aiuto per la programmazione : Marc-Olivier Méhu
Supporto tecnico e logistico : Manuel Goepfert
Aiuto per la traduzione : Arnaldo La Scala

Contatto : metmap@orbifly.com




FONTI E CREDITI :

   NOAA